sensor_id;sensor_type;location;lat;lon;timestamp;P1;durP1;ratioP1;P2;durP2;ratioP2
43363;SDS011;40636;52.424;-1.948;2023-10-13T00:00:27;4.97;;;3.13;;
43363;SDS011;40636;52.424;-1.948;2023-10-13T00:02:57;4.88;;;3.30;;
43363;SDS011;40636;52.424;-1.948;2023-10-13T00:05:30;2.72;;;2.50;;
43363;SDS011;40636;52.424;-1.948;2023-10-13T00:07:58;3.55;;;2.75;;
43363;SDS011;40636;52.424;-1.948;2023-10-13T00:10:27;3.53;;;3.00;;
43363;SDS011;40636;52.424;-1.948;2023-10-13T00:12:55;4.40;;;3.03;;
43363;SDS011;40636;52.424;-1.948;2023-10-13T00:15:32;2.92;;;2.60;;
43363;SDS011;40636;52.424;-1.948;2023-10-13T00:18:05;3.08;;;2.35;;
43363;SDS011;40636;52.424;-1.948;2023-10-13T00:20:39;3.20;;;2.50;;
43363;SDS011;40636;52.424;-1.948;2023-10-13T00:23:06;3.55;;;2.20;;
43363;SDS011;40636;52.424;-1.948;2023-10-13T00:25:33;3.40;;;2.65;;
43363;SDS011;40636;52.424;-1.948;2023-10-13T00:28:20;4.32;;;2.97;;
43363;SDS011;40636;52.424;-1.948;2023-10-13T00:30:51;3.17;;;2.58;;
43363;SDS011;40636;52.424;-1.948;2023-10-13T00:33:26;3.20;;;2.90;;
43363;SDS011;40636;52.424;-1.948;2023-10-13T00:35:53;3.58;;;2.88;;
43363;SDS011;40636;52.424;-1.948;2023-10-13T00:38:23;2.97;;;2.67;;
43363;SDS011;40636;52.424;-1.948;2023-10-13T00:40:50;2.80;;;2.30;;
43363;SDS011;40636;52.424;-1.948;2023-10-13T00:43:21;2.90;;;2.15;;
43363;SDS011;40636;52.424;-1.948;2023-10-13T00:45:51;2.88;;;2.13;;
43363;SDS011;40636;52.424;-1.948;2023-10-13T00:48:45;2.88;;;1.95;;
43363;SDS011;40636;52.424;-1.948;2023-10-13T00:51:19;2.33;;;1.65;;
43363;SDS011;40636;52.424;-1.948;2023-10-13T00:54:04;2.13;;;1.75;;
43363;SDS011;40636;52.424;-1.948;2023-10-13T00:56:38;2.38;;;1.70;;
43363;SDS011;40636;52.424;-1.948;2023-10-13T00:59:15;1.90;;;1.45;;
43363;SDS011;40636;52.424;-1.948;2023-10-13T01:01:42;1.83;;;1.60;;
43363;SDS011;40636;52.424;-1.948;2023-10-13T01:04:10;1.65;;;1.38;;
43363;SDS011;40636;52.424;-1.948;2023-10-13T01:06:41;2.65;;;1.67;;
43363;SDS011;40636;52.424;-1.948;2023-10-13T01:09:08;2.25;;;1.75;;
43363;SDS011;40636;52.424;-1.948;2023-10-13T01:11:46;2.00;;;1.30;;
43363;SDS011;40636;52.424;-1.948;2023-10-13T01:14:18;1.40;;;1.20;;
43363;SDS011;40636;52.424;-1.948;2023-10-13T01:16:49;2.38;;;1.60;;
43363;SDS011;40636;52.424;-1.948;2023-10-13T01:19:19;1.75;;;1.42;;
43363;SDS011;40636;52.424;-1.948;2023-10-13T01:21:54;1.58;;;1.48;;
43363;SDS011;40636;52.424;-1.948;2023-10-13T01:24:29;2.05;;;1.20;;
43363;SDS011;40636;52.424;-1.948;2023-10-13T01:27:02;1.35;;;1.00;;
43363;SDS011;40636;52.424;-1.948;2023-10-13T01:29:50;3.53;;;1.52;;
43363;SDS011;40636;52.424;-1.948;2023-10-13T01:32:22;1.58;;;1.10;;
43363;SDS011;40636;52.424;-1.948;2023-10-13T01:34:49;2.67;;;1.27;;
43363;SDS011;40636;52.424;-1.948;2023-10-13T01:37:22;1.10;;;1.00;;
43363;SDS011;40636;52.424;-1.948;2023-10-13T01:39:49;0.93;;;0.85;;
43363;SDS011;40636;52.424;-1.948;2023-10-13T01:42:17;2.03;;;1.02;;
43363;SDS011;40636;52.424;-1.948;2023-10-13T01:44:49;0.73;;;0.73;;
43363;SDS011;40636;52.424;-1.948;2023-10-13T01:47:16;0.80;;;0.60;;
43363;SDS011;40636;52.424;-1.948;2023-10-13T01:49:43;0.63;;;0.60;;
43363;SDS011;40636;52.424;-1.948;2023-10-13T01:52:14;2.03;;;0.57;;
43363;SDS011;40636;52.424;-1.948;2023-10-13T01:54:45;1.00;;;0.50;;
43363;SDS011;40636;52.424;-1.948;2023-10-13T01:57:12;1.70;;;0.73;;
43363;SDS011;40636;52.424;-1.948;2023-10-13T01:59:46;1.92;;;0.40;;
43363;SDS011;40636;52.424;-1.948;2023-10-13T02:02:14;1.15;;;0.50;;
43363;SDS011;40636;52.424;-1.948;2023-10-13T02:04:46;1.23;;;1.13;;
43363;SDS011;40636;52.424;-1.948;2023-10-13T02:07:16;2.13;;;1.55;;
43363;SDS011;40636;52.424;-1.948;2023-10-13T02:09:43;1.95;;;0.98;;
43363;SDS011;40636;52.424;-1.948;2023-10-13T02:12:09;3.28;;;1.15;;
43363;SDS011;40636;52.424;-1.948;2023-10-13T02:14:37;2.03;;;1.70;;
43363;SDS011;40636;52.424;-1.948;2023-10-13T02:17:04;2.90;;;1.63;;
43363;SDS011;40636;52.424;-1.948;2023-10-13T02:19:42;3.47;;;1.90;;
43363;SDS011;40636;52.424;-1.948;2023-10-13T02:22:13;4.00;;;2.15;;
43363;SDS011;40636;52.424;-1.948;2023-10-13T02:24:55;5.60;;;1.80;;
43363;SDS011;40636;52.424;-1.948;2023-10-13T02:27:35;6.20;;;2.03;;
43363;SDS011;40636;52.424;-1.948;2023-10-13T02:30:07;7.50;;;3.13;;
43363;SDS011;40636;52.424;-1.948;2023-10-13T02:32:40;4.80;;;3.38;;
43363;SDS011;40636;52.424;-1.948;2023-10-13T02:35:10;5.22;;;2.75;;
43363;SDS011;40636;52.424;-1.948;2023-10-13T02:37:42;7.40;;;3.60;;
43363;SDS011;40636;52.424;-1.948;2023-10-13T02:40:20;5.55;;;2.97;;
43363;SDS011;40636;52.424;-1.948;2023-10-13T02:42:49;7.03;;;3.67;;
43363;SDS011;40636;52.424;-1.948;2023-10-13T02:45:16;5.95;;;3.15;;
43363;SDS011;40636;52.424;-1.948;2023-10-13T02:47:48;7.10;;;3.35;;
43363;SDS011;40636;52.424;-1.948;2023-10-13T02:50:34;7.95;;;3.22;;
43363;SDS011;40636;52.424;-1.948;2023-10-13T02:53:01;6.03;;;3.50;;
43363;SDS011;40636;52.424;-1.948;2023-10-13T02:55:29;7.78;;;4.22;;
43363;SDS011;40636;52.424;-1.948;2023-10-13T02:57:58;9.18;;;4.00;;
43363;SDS011;40636;52.424;-1.948;2023-10-13T03:00:25;9.45;;;4.18;;
43363;SDS011;40636;52.424;-1.948;2023-10-13T03:02:58;7.60;;;4.15;;
43363;SDS011;40636;52.424;-1.948;2023-10-13T03:05:25;8.82;;;4.63;;
43363;SDS011;40636;52.424;-1.948;2023-10-13T03:07:56;5.35;;;3.72;;
43363;SDS011;40636;52.424;-1.948;2023-10-13T03:10:25;9.23;;;3.63;;
43363;SDS011;40636;52.424;-1.948;2023-10-13T03:12:55;7.68;;;4.00;;
43363;SDS011;40636;52.424;-1.948;2023-10-13T03:15:22;9.43;;;3.63;;
43363;SDS011;40636;52.424;-1.948;2023-10-13T03:17:56;8.82;;;4.13;;
43363;SDS011;40636;52.424;-1.948;2023-10-13T03:20:25;6.68;;;3.35;;
43363;SDS011;40636;52.424;-1.948;2023-10-13T03:22:59;6.40;;;4.15;;
43363;SDS011;40636;52.424;-1.948;2023-10-13T03:25:25;5.22;;;3.20;;
43363;SDS011;40636;52.424;-1.948;2023-10-13T03:27:56;6.10;;;3.53;;
43363;SDS011;40636;52.424;-1.948;2023-10-13T03:30:27;7.18;;;3.50;;
43363;SDS011;40636;52.424;-1.948;2023-10-13T03:33:08;6.22;;;3.03;;
43363;SDS011;40636;52.424;-1.948;2023-10-13T03:35:40;4.32;;;2.70;;
43363;SDS011;40636;52.424;-1.948;2023-10-13T03:38:09;3.75;;;2.60;;
43363;SDS011;40636;52.424;-1.948;2023-10-13T03:40:46;3.08;;;2.25;;
43363;SDS011;40636;52.424;-1.948;2023-10-13T03:45:50;4.63;;;2.15;;
43363;SDS011;40636;52.424;-1.948;2023-10-13T03:48:27;3.38;;;2.28;;
43363;SDS011;40636;52.424;-1.948;2023-10-13T03:51:01;3.65;;;2.38;;
43363;SDS011;40636;52.424;-1.948;2023-10-13T03:53:37;5.38;;;2.63;;
43363;SDS011;40636;52.424;-1.948;2023-10-13T03:56:25;3.30;;;2.40;;
43363;SDS011;40636;52.424;-1.948;2023-10-13T03:59:15;5.00;;;2.50;;
43363;SDS011;40636;52.424;-1.948;2023-10-13T04:01:42;4.72;;;2.50;;
43363;SDS011;40636;52.424;-1.948;2023-10-13T04:07:01;2.90;;;2.00;;
43363;SDS011;40636;52.424;-1.948;2023-10-13T04:09:31;3.10;;;2.63;;
43363;SDS011;40636;52.424;-1.948;2023-10-13T04:14:35;2.65;;;2.45;;
43363;SDS011;40636;52.424;-1.948;2023-10-13T04:17:22;2.80;;;1.85;;
43363;SDS011;40636;52.424;-1.948;2023-10-13T04:19:50;4.00;;;2.05;;
43363;SDS011;40636;52.424;-1.948;2023-10-13T04:22:33;3.15;;;1.75;;
43363;SDS011;40636;52.424;-1.948;2023-10-13T04:25:19;2.92;;;2.15;;
43363;SDS011;40636;52.424;-1.948;2023-10-13T04:28:13;2.08;;;1.88;;
43363;SDS011;40636;52.424;-1.948;2023-10-13T04:30:47;2.10;;;1.88;;
43363;SDS011;40636;52.424;-1.948;2023-10-13T04:36:16;3.78;;;1.92;;
43363;SDS011;40636;52.424;-1.948;2023-10-13T04:39:02;2.42;;;2.13;;
43363;SDS011;40636;52.424;-1.948;2023-10-13T04:41:32;3.33;;;2.70;;
43363;SDS011;40636;52.424;-1.948;2023-10-13T04:46:57;2.80;;;2.60;;
43363;SDS011;40636;52.424;-1.948;2023-10-13T04:49:29;3.92;;;2.92;;
43363;SDS011;40636;52.424;-1.948;2023-10-13T04:52:16;3.75;;;2.60;;
43363;SDS011;40636;52.424;-1.948;2023-10-13T04:55:02;4.75;;;2.97;;
43363;SDS011;40636;52.424;-1.948;2023-10-13T04:57:48;5.00;;;3.30;;
43363;SDS011;40636;52.424;-1.948;2023-10-13T05:00:26;6.35;;;3.70;;
43363;SDS011;40636;52.424;-1.948;2023-10-13T05:03:12;6.28;;;4.60;;
43363;SDS011;40636;52.424;-1.948;2023-10-13T05:06:05;7.88;;;5.22;;
43363;SDS011;40636;52.424;-1.948;2023-10-13T05:08:52;10.35;;;6.03;;
43363;SDS011;40636;52.424;-1.948;2023-10-13T05:11:38;12.75;;;7.03;;
43363;SDS011;40636;52.424;-1.948;2023-10-13T05:14:23;14.63;;;7.53;;
43363;SDS011;40636;52.424;-1.948;2023-10-13T05:17:08;12.63;;;7.32;;
43363;SDS011;40636;52.424;-1.948;2023-10-13T05:19:55;18.33;;;9.00;;
43363;SDS011;40636;52.424;-1.948;2023-10-13T05:22:41;13.30;;;8.90;;
43363;SDS011;40636;52.424;-1.948;2023-10-13T05:25:27;16.27;;;8.75;;
43363;SDS011;40636;52.424;-1.948;2023-10-13T05:28:12;15.05;;;8.85;;
43363;SDS011;40636;52.424;-1.948;2023-10-13T05:31:02;16.20;;;8.27;;
43363;SDS011;40636;52.424;-1.948;2023-10-13T05:33:47;13.02;;;8.32;;
43363;SDS011;40636;52.424;-1.948;2023-10-13T05:36:33;12.25;;;7.40;;
43363;SDS011;40636;52.424;-1.948;2023-10-13T05:39:18;12.65;;;7.28;;
43363;SDS011;40636;52.424;-1.948;2023-10-13T05:42:04;13.82;;;8.63;;
43363;SDS011;40636;52.424;-1.948;2023-10-13T05:44:49;14.10;;;7.28;;
43363;SDS011;40636;52.424;-1.948;2023-10-13T05:47:36;16.33;;;8.77;;
43363;SDS011;40636;52.424;-1.948;2023-10-13T05:50:10;15.07;;;8.40;;
43363;SDS011;40636;52.424;-1.948;2023-10-13T05:52:49;14.85;;;7.95;;
43363;SDS011;40636;52.424;-1.948;2023-10-13T05:55:28;22.67;;;9.18;;
43363;SDS011;40636;52.424;-1.948;2023-10-13T05:58:15;13.73;;;9.70;;
43363;SDS011;40636;52.424;-1.948;2023-10-13T06:01:01;17.27;;;11.15;;
43363;SDS011;40636;52.424;-1.948;2023-10-13T06:03:46;18.23;;;9.10;;
43363;SDS011;40636;52.424;-1.948;2023-10-13T06:06:31;20.05;;;9.32;;
43363;SDS011;40636;52.424;-1.948;2023-10-13T06:09:24;18.42;;;9.30;;
43363;SDS011;40636;52.424;-1.948;2023-10-13T06:12:09;22.05;;;10.63;;
43363;SDS011;40636;52.424;-1.948;2023-10-13T06:14:55;21.13;;;8.63;;
43363;SDS011;40636;52.424;-1.948;2023-10-13T06:17:40;19.48;;;10.32;;
43363;SDS011;40636;52.424;-1.948;2023-10-13T06:20:25;15.77;;;9.00;;
43363;SDS011;40636;52.424;-1.948;2023-10-13T06:23:10;22.40;;;9.27;;
43363;SDS011;40636;52.424;-1.948;2023-10-13T06:25:55;21.20;;;9.50;;
43363;SDS011;40636;52.424;-1.948;2023-10-13T06:28:40;19.80;;;8.50;;
43363;SDS011;40636;52.424;-1.948;2023-10-13T06:31:07;15.80;;;7.82;;
43363;SDS011;40636;52.424;-1.948;2023-10-13T06:33:38;16.45;;;6.38;;
43363;SDS011;40636;52.424;-1.948;2023-10-13T06:36:11;15.20;;;6.68;;
43363;SDS011;40636;52.424;-1.948;2023-10-13T06:38:38;13.75;;;5.97;;
43363;SDS011;40636;52.424;-1.948;2023-10-13T06:41:07;25.38;;;6.65;;
43363;SDS011;40636;52.424;-1.948;2023-10-13T06:43:34;13.93;;;6.10;;
43363;SDS011;40636;52.424;-1.948;2023-10-13T06:46:10;18.58;;;6.00;;
43363;SDS011;40636;52.424;-1.948;2023-10-13T06:48:42;12.48;;;5.45;;
43363;SDS011;40636;52.424;-1.948;2023-10-13T06:51:10;16.85;;;5.28;;
43363;SDS011;40636;52.424;-1.948;2023-10-13T06:53:48;12.32;;;5.65;;
43363;SDS011;40636;52.424;-1.948;2023-10-13T06:56:15;15.98;;;5.97;;
43363;SDS011;40636;52.424;-1.948;2023-10-13T06:58:49;16.08;;;5.38;;
43363;SDS011;40636;52.424;-1.948;2023-10-13T07:01:15;14.15;;;5.22;;
43363;SDS011;40636;52.424;-1.948;2023-10-13T07:03:42;11.43;;;3.95;;
43363;SDS011;40636;52.424;-1.948;2023-10-13T07:06:10;13.30;;;4.82;;
43363;SDS011;40636;52.424;-1.948;2023-10-13T07:08:44;18.58;;;5.00;;
43363;SDS011;40636;52.424;-1.948;2023-10-13T07:11:15;15.77;;;4.60;;
43363;SDS011;40636;52.424;-1.948;2023-10-13T07:13:49;15.65;;;4.32;;
43363;SDS011;40636;52.424;-1.948;2023-10-13T07:16:17;16.45;;;4.80;;
43363;SDS011;40636;52.424;-1.948;2023-10-13T07:18:55;12.98;;;4.53;;
43363;SDS011;40636;52.424;-1.948;2023-10-13T07:21:22;15.05;;;4.75;;
43363;SDS011;40636;52.424;-1.948;2023-10-13T07:23:58;17.13;;;4.57;;
43363;SDS011;40636;52.424;-1.948;2023-10-13T07:29:09;18.95;;;4.97;;
43363;SDS011;40636;52.424;-1.948;2023-10-13T07:31:37;14.77;;;4.95;;
43363;SDS011;40636;52.424;-1.948;2023-10-13T07:34:12;12.63;;;4.93;;
43363;SDS011;40636;52.424;-1.948;2023-10-13T07:36:54;11.07;;;4.18;;
43363;SDS011;40636;52.424;-1.948;2023-10-13T07:39:28;15.80;;;4.72;;
43363;SDS011;40636;52.424;-1.948;2023-10-13T07:42:01;17.25;;;4.65;;
43363;SDS011;40636;52.424;-1.948;2023-10-13T07:44:31;12.07;;;4.38;;
43363;SDS011;40636;52.424;-1.948;2023-10-13T07:47:00;13.75;;;3.92;;
43363;SDS011;40636;52.424;-1.948;2023-10-13T07:49:32;10.70;;;3.22;;
43363;SDS011;40636;52.424;-1.948;2023-10-13T07:52:06;12.95;;;5.03;;
43363;SDS011;40636;52.424;-1.948;2023-10-13T07:54:48;8.90;;;3.22;;
43363;SDS011;40636;52.424;-1.948;2023-10-13T07:57:26;7.55;;;2.97;;
43363;SDS011;40636;52.424;-1.948;2023-10-13T07:59:56;10.07;;;2.90;;
43363;SDS011;40636;52.424;-1.948;2023-10-13T08:02:58;11.13;;;3.60;;
43363;SDS011;40636;52.424;-1.948;2023-10-13T08:05:44;12.45;;;3.40;;
43363;SDS011;40636;52.424;-1.948;2023-10-13T08:08:24;15.48;;;4.50;;
43363;SDS011;40636;52.424;-1.948;2023-10-13T08:10:52;11.02;;;3.90;;
43363;SDS011;40636;52.424;-1.948;2023-10-13T08:13:27;12.20;;;3.40;;
43363;SDS011;40636;52.424;-1.948;2023-10-13T08:15:54;8.82;;;2.35;;
43363;SDS011;40636;52.424;-1.948;2023-10-13T08:18:20;7.65;;;2.40;;
43363;SDS011;40636;52.424;-1.948;2023-10-13T08:21:03;4.28;;;2.05;;
43363;SDS011;40636;52.424;-1.948;2023-10-13T08:23:42;11.80;;;2.55;;
43363;SDS011;40636;52.424;-1.948;2023-10-13T08:26:21;6.32;;;2.50;;
43363;SDS011;40636;52.424;-1.948;2023-10-13T08:29:07;6.80;;;2.45;;
43363;SDS011;40636;52.424;-1.948;2023-10-13T08:31:50;5.63;;;2.05;;
43363;SDS011;40636;52.424;-1.948;2023-10-13T08:34:46;6.82;;;2.13;;
43363;SDS011;40636;52.424;-1.948;2023-10-13T08:37:13;8.25;;;1.88;;
43363;SDS011;40636;52.424;-1.948;2023-10-13T08:39:50;4.03;;;1.88;;
43363;SDS011;40636;52.424;-1.948;2023-10-13T08:42:50;6.70;;;2.17;;
43363;SDS011;40636;52.424;-1.948;2023-10-13T08:45:30;11.63;;;2.22;;
43363;SDS011;40636;52.424;-1.948;2023-10-13T08:48:00;5.30;;;1.88;;
43363;SDS011;40636;52.424;-1.948;2023-10-13T08:50:43;7.68;;;2.13;;
43363;SDS011;40636;52.424;-1.948;2023-10-13T08:55:56;5.03;;;1.73;;
43363;SDS011;40636;52.424;-1.948;2023-10-13T08:59:00;8.40;;;2.38;;
43363;SDS011;40636;52.424;-1.948;2023-10-13T09:01:30;8.15;;;2.42;;
43363;SDS011;40636;52.424;-1.948;2023-10-13T09:04:04;5.05;;;1.92;;
43363;SDS011;40636;52.424;-1.948;2023-10-13T09:09:48;7.70;;;2.20;;
43363;SDS011;40636;52.424;-1.948;2023-10-13T09:15:13;3.83;;;1.58;;
43363;SDS011;40636;52.424;-1.948;2023-10-13T09:17:40;10.15;;;1.95;;
43363;SDS011;40636;52.424;-1.948;2023-10-13T09:20:09;4.88;;;1.80;;
43363;SDS011;40636;52.424;-1.948;2023-10-13T09:22:51;8.45;;;1.92;;
43363;SDS011;40636;52.424;-1.948;2023-10-13T09:25:31;7.35;;;2.33;;
43363;SDS011;40636;52.424;-1.948;2023-10-13T09:30:43;6.03;;;1.65;;
43363;SDS011;40636;52.424;-1.948;2023-10-13T09:33:10;8.52;;;1.85;;
43363;SDS011;40636;52.424;-1.948;2023-10-13T09:35:45;3.38;;;1.58;;
43363;SDS011;40636;52.424;-1.948;2023-10-13T09:38:18;3.63;;;1.40;;
43363;SDS011;40636;52.424;-1.948;2023-10-13T09:40:44;3.75;;;1.00;;
43363;SDS011;40636;52.424;-1.948;2023-10-13T09:43:19;1.98;;;1.42;;
43363;SDS011;40636;52.424;-1.948;2023-10-13T09:45:48;1.35;;;0.95;;
43363;SDS011;40636;52.424;-1.948;2023-10-13T09:48:44;2.95;;;1.10;;
43363;SDS011;40636;52.424;-1.948;2023-10-13T09:51:30;0.95;;;0.85;;
43363;SDS011;40636;52.424;-1.948;2023-10-13T09:54:11;1.08;;;0.90;;
43363;SDS011;40636;52.424;-1.948;2023-10-13T09:57:05;2.13;;;1.00;;
43363;SDS011;40636;52.424;-1.948;2023-10-13T09:59:42;2.28;;;1.35;;
43363;SDS011;40636;52.424;-1.948;2023-10-13T10:02:20;3.17;;;1.20;;
43363;SDS011;40636;52.424;-1.948;2023-10-13T10:04:54;1.33;;;1.17;;
43363;SDS011;40636;52.424;-1.948;2023-10-13T10:07:40;1.73;;;0.95;;
43363;SDS011;40636;52.424;-1.948;2023-10-13T10:10:10;2.08;;;1.13;;
43363;SDS011;40636;52.424;-1.948;2023-10-13T10:12:46;2.30;;;1.08;;
43363;SDS011;40636;52.424;-1.948;2023-10-13T10:18:01;1.50;;;1.05;;
43363;SDS011;40636;52.424;-1.948;2023-10-13T10:20:33;4.68;;;1.40;;
43363;SDS011;40636;52.424;-1.948;2023-10-13T10:23:24;1.70;;;0.82;;
43363;SDS011;40636;52.424;-1.948;2023-10-13T10:25:53;1.58;;;1.17;;
43363;SDS011;40636;52.424;-1.948;2023-10-13T10:28:40;2.90;;;1.60;;
43363;SDS011;40636;52.424;-1.948;2023-10-13T10:31:09;2.13;;;1.15;;
43363;SDS011;40636;52.424;-1.948;2023-10-13T10:33:40;2.38;;;0.80;;
43363;SDS011;40636;52.424;-1.948;2023-10-13T10:36:07;1.50;;;1.10;;
43363;SDS011;40636;52.424;-1.948;2023-10-13T10:38:54;1.77;;;0.80;;
43363;SDS011;40636;52.424;-1.948;2023-10-13T10:41:26;2.85;;;1.35;;
43363;SDS011;40636;52.424;-1.948;2023-10-13T10:44:15;1.05;;;0.70;;
43363;SDS011;40636;52.424;-1.948;2023-10-13T10:46:43;1.23;;;0.60;;
43363;SDS011;40636;52.424;-1.948;2023-10-13T10:49:27;0.40;;;0.40;;
43363;SDS011;40636;52.424;-1.948;2023-10-13T10:51:57;2.17;;;0.90;;
43363;SDS011;40636;52.424;-1.948;2023-10-13T10:54:27;1.00;;;0.55;;
43363;SDS011;40636;52.424;-1.948;2023-10-13T10:57:00;0.73;;;0.52;;
43363;SDS011;40636;52.424;-1.948;2023-10-13T10:59:44;0.35;;;0.32;;
43363;SDS011;40636;52.424;-1.948;2023-10-13T11:02:12;1.35;;;0.65;;
43363;SDS011;40636;52.424;-1.948;2023-10-13T11:04:53;0.60;;;0.40;;
43363;SDS011;40636;52.424;-1.948;2023-10-13T11:07:25;0.50;;;0.50;;
43363;SDS011;40636;52.424;-1.948;2023-10-13T11:09:54;0.47;;;0.40;;
43363;SDS011;40636;52.424;-1.948;2023-10-13T11:12:33;0.57;;;0.40;;
43363;SDS011;40636;52.424;-1.948;2023-10-13T11:15:03;0.30;;;0.30;;
43363;SDS011;40636;52.424;-1.948;2023-10-13T11:17:49;0.60;;;0.40;;
43363;SDS011;40636;52.424;-1.948;2023-10-13T11:20:25;0.30;;;0.30;;
43363;SDS011;40636;52.424;-1.948;2023-10-13T11:23:10;0.20;;;0.20;;
43363;SDS011;40636;52.424;-1.948;2023-10-13T11:25:39;0.38;;;0.38;;
43363;SDS011;40636;52.424;-1.948;2023-10-13T11:28:18;2.28;;;0.38;;
43363;SDS011;40636;52.424;-1.948;2023-10-13T11:30:47;0.95;;;0.30;;
43363;SDS011;40636;52.424;-1.948;2023-10-13T11:33:18;0.38;;;0.25;;
43363;SDS011;40636;52.424;-1.948;2023-10-13T11:35:50;0.38;;;0.30;;
43363;SDS011;40636;52.424;-1.948;2023-10-13T11:40:54;0.90;;;0.40;;
43363;SDS011;40636;52.424;-1.948;2023-10-13T11:46:10;0.52;;;0.45;;
43363;SDS011;40636;52.424;-1.948;2023-10-13T11:48:44;2.08;;;0.50;;
43363;SDS011;40636;52.424;-1.948;2023-10-13T11:51:21;0.60;;;0.30;;
43363;SDS011;40636;52.424;-1.948;2023-10-13T11:53:50;0.88;;;0.60;;
43363;SDS011;40636;52.424;-1.948;2023-10-13T11:56:22;0.73;;;0.35;;
43363;SDS011;40636;52.424;-1.948;2023-10-13T11:58:49;0.60;;;0.50;;
43363;SDS011;40636;52.424;-1.948;2023-10-13T12:01:16;2.13;;;0.88;;
43363;SDS011;40636;52.424;-1.948;2023-10-13T12:03:48;0.43;;;0.40;;
43363;SDS011;40636;52.424;-1.948;2023-10-13T12:06:34;0.55;;;0.40;;
43363;SDS011;40636;52.424;-1.948;2023-10-13T12:09:05;0.55;;;0.55;;
43363;SDS011;40636;52.424;-1.948;2023-10-13T12:12:00;1.00;;;0.68;;
43363;SDS011;40636;52.424;-1.948;2023-10-13T12:14:28;0.43;;;0.35;;
43363;SDS011;40636;52.424;-1.948;2023-10-13T12:16:56;1.15;;;0.30;;
43363;SDS011;40636;52.424;-1.948;2023-10-13T12:19:30;1.15;;;0.55;;
43363;SDS011;40636;52.424;-1.948;2023-10-13T12:21:57;1.02;;;0.73;;
43363;SDS011;40636;52.424;-1.948;2023-10-13T12:24:30;0.40;;;0.40;;
43363;SDS011;40636;52.424;-1.948;2023-10-13T12:27:07;0.32;;;0.30;;
43363;SDS011;40636;52.424;-1.948;2023-10-13T12:29:47;0.30;;;0.30;;
43363;SDS011;40636;52.424;-1.948;2023-10-13T12:32:15;1.63;;;0.47;;
43363;SDS011;40636;52.424;-1.948;2023-10-13T12:34:47;0.40;;;0.40;;
43363;SDS011;40636;52.424;-1.948;2023-10-13T12:37:47;0.52;;;0.40;;
43363;SDS011;40636;52.424;-1.948;2023-10-13T12:40:15;1.65;;;0.40;;
43363;SDS011;40636;52.424;-1.948;2023-10-13T12:43:03;0.40;;;0.40;;
43363;SDS011;40636;52.424;-1.948;2023-10-13T12:45:49;0.70;;;0.70;;
43363;SDS011;40636;52.424;-1.948;2023-10-13T12:48:37;0.40;;;0.40;;
43363;SDS011;40636;52.424;-1.948;2023-10-13T12:51:24;0.32;;;0.32;;
43363;SDS011;40636;52.424;-1.948;2023-10-13T12:53:55;0.60;;;0.60;;
43363;SDS011;40636;52.424;-1.948;2023-10-13T12:56:31;0.45;;;0.45;;
43363;SDS011;40636;52.424;-1.948;2023-10-13T12:58:57;0.47;;;0.43;;
43363;SDS011;40636;52.424;-1.948;2023-10-13T13:01:25;0.65;;;0.50;;
43363;SDS011;40636;52.424;-1.948;2023-10-13T13:03:59;1.25;;;0.60;;
43363;SDS011;40636;52.424;-1.948;2023-10-13T13:06:29;0.70;;;0.40;;
43363;SDS011;40636;52.424;-1.948;2023-10-13T13:08:57;0.95;;;0.60;;
43363;SDS011;40636;52.424;-1.948;2023-10-13T13:11:25;0.68;;;0.50;;
43363;SDS011;40636;52.424;-1.948;2023-10-13T13:13:55;0.43;;;0.43;;
43363;SDS011;40636;52.424;-1.948;2023-10-13T13:16:22;1.83;;;0.60;;
43363;SDS011;40636;52.424;-1.948;2023-10-13T13:18:57;1.42;;;0.80;;
43363;SDS011;40636;52.424;-1.948;2023-10-13T13:21:24;1.15;;;0.60;;
43363;SDS011;40636;52.424;-1.948;2023-10-13T13:23:51;0.45;;;0.45;;
43363;SDS011;40636;52.424;-1.948;2023-10-13T13:26:24;0.40;;;0.40;;
43363;SDS011;40636;52.424;-1.948;2023-10-13T13:28:51;0.65;;;0.65;;
43363;SDS011;40636;52.424;-1.948;2023-10-13T13:31:18;0.50;;;0.50;;
43363;SDS011;40636;52.424;-1.948;2023-10-13T13:33:45;0.68;;;0.40;;
43363;SDS011;40636;52.424;-1.948;2023-10-13T13:36:12;1.33;;;0.60;;
43363;SDS011;40636;52.424;-1.948;2023-10-13T13:38:43;0.93;;;0.60;;
43363;SDS011;40636;52.424;-1.948;2023-10-13T13:41:16;0.50;;;0.50;;
43363;SDS011;40636;52.424;-1.948;2023-10-13T13:43:46;1.95;;;0.50;;
43363;SDS011;40636;52.424;-1.948;2023-10-13T13:46:27;0.70;;;0.70;;
43363;SDS011;40636;52.424;-1.948;2023-10-13T13:48:59;0.70;;;0.60;;
43363;SDS011;40636;52.424;-1.948;2023-10-13T13:51:27;1.75;;;0.75;;
43363;SDS011;40636;52.424;-1.948;2023-10-13T13:53:55;0.90;;;0.60;;
43363;SDS011;40636;52.424;-1.948;2023-10-13T13:56:22;0.70;;;0.70;;
43363;SDS011;40636;52.424;-1.948;2023-10-13T13:58:54;0.75;;;0.70;;
43363;SDS011;40636;52.424;-1.948;2023-10-13T14:01:25;1.10;;;0.77;;
43363;SDS011;40636;52.424;-1.948;2023-10-13T14:03:52;1.08;;;0.80;;
43363;SDS011;40636;52.424;-1.948;2023-10-13T14:06:24;1.45;;;0.93;;
43363;SDS011;40636;52.424;-1.948;2023-10-13T14:08:54;1.33;;;1.05;;
43363;SDS011;40636;52.424;-1.948;2023-10-13T14:11:27;2.30;;;1.42;;
43363;SDS011;40636;52.424;-1.948;2023-10-13T14:14:07;1.48;;;1.15;;
43363;SDS011;40636;52.424;-1.948;2023-10-13T14:17:01;2.67;;;1.60;;
43363;SDS011;40636;52.424;-1.948;2023-10-13T14:19:34;3.88;;;1.83;;
43363;SDS011;40636;52.424;-1.948;2023-10-13T14:22:07;2.67;;;1.15;;
43363;SDS011;40636;52.424;-1.948;2023-10-13T14:24:38;2.00;;;1.00;;
43363;SDS011;40636;52.424;-1.948;2023-10-13T14:27:10;2.75;;;1.30;;
43363;SDS011;40636;52.424;-1.948;2023-10-13T14:29:57;2.88;;;1.15;;
43363;SDS011;40636;52.424;-1.948;2023-10-13T14:32:23;3.55;;;1.30;;
43363;SDS011;40636;52.424;-1.948;2023-10-13T14:34:51;1.98;;;1.23;;
43363;SDS011;40636;52.424;-1.948;2023-10-13T14:37:21;1.75;;;1.08;;
43363;SDS011;40636;52.424;-1.948;2023-10-13T14:39:58;2.20;;;1.00;;
43363;SDS011;40636;52.424;-1.948;2023-10-13T14:42:27;1.00;;;1.00;;
43363;SDS011;40636;52.424;-1.948;2023-10-13T14:44:54;1.58;;;0.98;;
43363;SDS011;40636;52.424;-1.948;2023-10-13T14:47:24;2.30;;;1.10;;
43363;SDS011;40636;52.424;-1.948;2023-10-13T14:49:54;2.28;;;1.00;;
43363;SDS011;40636;52.424;-1.948;2023-10-13T14:52:26;4.32;;;1.20;;
43363;SDS011;40636;52.424;-1.948;2023-10-13T14:54:54;2.63;;;1.08;;
43363;SDS011;40636;52.424;-1.948;2023-10-13T14:57:23;1.70;;;1.15;;
43363;SDS011;40636;52.424;-1.948;2023-10-13T14:59:51;3.03;;;1.60;;
43363;SDS011;40636;52.424;-1.948;2023-10-13T15:02:21;4.85;;;1.75;;
43363;SDS011;40636;52.424;-1.948;2023-10-13T15:04:48;3.38;;;1.40;;
43363;SDS011;40636;52.424;-1.948;2023-10-13T15:07:16;3.70;;;2.25;;
43363;SDS011;40636;52.424;-1.948;2023-10-13T15:09:48;6.55;;;2.05;;
43363;SDS011;40636;52.424;-1.948;2023-10-13T15:12:15;5.47;;;2.15;;
43363;SDS011;40636;52.424;-1.948;2023-10-13T15:14:49;3.42;;;1.63;;
43363;SDS011;40636;52.424;-1.948;2023-10-13T15:17:16;4.72;;;1.88;;
43363;SDS011;40636;52.424;-1.948;2023-10-13T15:19:43;3.92;;;2.17;;
43363;SDS011;40636;52.424;-1.948;2023-10-13T15:22:10;5.07;;;1.90;;
43363;SDS011;40636;52.424;-1.948;2023-10-13T15:24:43;4.68;;;1.70;;
43363;SDS011;40636;52.424;-1.948;2023-10-13T15:27:11;9.32;;;2.25;;
43363;SDS011;40636;52.424;-1.948;2023-10-13T15:29:38;6.30;;;2.10;;
43363;SDS011;40636;52.424;-1.948;2023-10-13T15:32:05;6.30;;;3.13;;
43363;SDS011;40636;52.424;-1.948;2023-10-13T15:34:53;10.25;;;3.50;;
43363;SDS011;40636;52.424;-1.948;2023-10-13T15:37:20;8.02;;;2.00;;
43363;SDS011;40636;52.424;-1.948;2023-10-13T15:39:52;10.73;;;2.53;;
43363;SDS011;40636;52.424;-1.948;2023-10-13T15:42:19;10.80;;;3.08;;
43363;SDS011;40636;52.424;-1.948;2023-10-13T15:44:47;7.97;;;3.05;;
43363;SDS011;40636;52.424;-1.948;2023-10-13T15:47:16;7.10;;;2.92;;
43363;SDS011;40636;52.424;-1.948;2023-10-13T15:49:46;9.32;;;3.17;;